sensor_id;sensor_type;location;lat;lon;timestamp;temperature;humidity
55369;DHT22;41247;49.736;8.752;2022-07-17T00:01:40;13.00;99.90
55369;DHT22;41247;49.736;8.752;2022-07-17T00:05:21;13.00;99.90
55369;DHT22;41247;49.736;8.752;2022-07-17T00:09:02;13.20;99.90
55369;DHT22;41247;49.736;8.752;2022-07-17T00:12:45;13.20;99.90
55369;DHT22;41247;49.736;8.752;2022-07-17T00:16:26;13.30;99.90
55369;DHT22;41247;49.736;8.752;2022-07-17T00:20:07;13.30;99.90
55369;DHT22;41247;49.736;8.752;2022-07-17T00:23:48;13.50;99.90
55369;DHT22;41247;49.736;8.752;2022-07-17T00:27:29;13.50;99.90
55369;DHT22;41247;49.736;8.752;2022-07-17T00:31:10;13.70;99.90
55369;DHT22;41247;49.736;8.752;2022-07-17T00:34:50;13.70;99.90
55369;DHT22;41247;49.736;8.752;2022-07-17T00:38:31;13.80;99.90
55369;DHT22;41247;49.736;8.752;2022-07-17T00:42:13;13.90;99.90
55369;DHT22;41247;49.736;8.752;2022-07-17T00:46:02;14.10;99.90
55369;DHT22;41247;49.736;8.752;2022-07-17T00:49:43;14.10;99.90
55369;DHT22;41247;49.736;8.752;2022-07-17T00:53:24;14.20;99.90
55369;DHT22;41247;49.736;8.752;2022-07-17T00:57:14;14.20;99.90
55369;DHT22;41247;49.736;8.752;2022-07-17T01:00:56;14.10;99.90
55369;DHT22;41247;49.736;8.752;2022-07-17T01:04:37;14.00;99.90
55369;DHT22;41247;49.736;8.752;2022-07-17T01:08:19;13.90;99.90
55369;DHT22;41247;49.736;8.752;2022-07-17T01:12:03;13.90;99.90
55369;DHT22;41247;49.736;8.752;2022-07-17T01:15:44;13.80;99.90
55369;DHT22;41247;49.736;8.752;2022-07-17T01:19:26;13.80;99.90
55369;DHT22;41247;49.736;8.752;2022-07-17T01:23:07;13.80;99.90
55369;DHT22;41247;49.736;8.752;2022-07-17T01:26:48;13.80;99.90
55369;DHT22;41247;49.736;8.752;2022-07-17T01:30:29;13.80;99.90
55369;DHT22;41247;49.736;8.752;2022-07-17T01:34:11;13.90;99.90
55369;DHT22;41247;49.736;8.752;2022-07-17T01:37:52;14.00;99.90
55369;DHT22;41247;49.736;8.752;2022-07-17T01:41:33;14.10;99.90
55369;DHT22;41247;49.736;8.752;2022-07-17T01:45:16;14.10;99.90
55369;DHT22;41247;49.736;8.752;2022-07-17T01:48:58;14.00;99.90
55369;DHT22;41247;49.736;8.752;2022-07-17T01:52:41;13.90;99.90
55369;DHT22;41247;49.736;8.752;2022-07-17T01:56:23;13.80;99.90
55369;DHT22;41247;49.736;8.752;2022-07-17T02:00:05;13.70;99.90
55369;DHT22;41247;49.736;8.752;2022-07-17T02:03:48;13.60;99.90
55369;DHT22;41247;49.736;8.752;2022-07-17T02:07:29;13.40;99.90
55369;DHT22;41247;49.736;8.752;2022-07-17T02:11:11;13.30;99.90
55369;DHT22;41247;49.736;8.752;2022-07-17T02:14:54;13.30;99.90
55369;DHT22;41247;49.736;8.752;2022-07-17T02:18:35;13.30;99.90
55369;DHT22;41247;49.736;8.752;2022-07-17T02:22:16;13.30;99.90
55369;DHT22;41247;49.736;8.752;2022-07-17T02:25:56;13.30;99.90
55369;DHT22;41247;49.736;8.752;2022-07-17T02:29:37;13.30;99.90
55369;DHT22;41247;49.736;8.752;2022-07-17T02:33:17;13.30;99.90
55369;DHT22;41247;49.736;8.752;2022-07-17T02:36:58;13.20;99.90
55369;DHT22;41247;49.736;8.752;2022-07-17T02:40:39;13.20;99.90
55369;DHT22;41247;49.736;8.752;2022-07-17T02:44:19;13.20;99.90
55369;DHT22;41247;49.736;8.752;2022-07-17T02:48:00;13.20;99.90
55369;DHT22;41247;49.736;8.752;2022-07-17T02:51:40;13.20;99.90
55369;DHT22;41247;49.736;8.752;2022-07-17T02:55:21;13.10;99.90
55369;DHT22;41247;49.736;8.752;2022-07-17T02:59:02;13.10;99.90
55369;DHT22;41247;49.736;8.752;2022-07-17T03:02:44;13.10;99.90
55369;DHT22;41247;49.736;8.752;2022-07-17T03:06:25;13.00;99.90
55369;DHT22;41247;49.736;8.752;2022-07-17T03:10:07;12.90;99.90
55369;DHT22;41247;49.736;8.752;2022-07-17T03:13:48;13.00;99.90
55369;DHT22;41247;49.736;8.752;2022-07-17T03:17:29;12.90;99.90
55369;DHT22;41247;49.736;8.752;2022-07-17T03:21:09;12.90;99.90
55369;DHT22;41247;49.736;8.752;2022-07-17T03:24:50;12.90;99.90
55369;DHT22;41247;49.736;8.752;2022-07-17T03:28:30;12.90;99.90
55369;DHT22;41247;49.736;8.752;2022-07-17T03:32:11;12.90;99.90
55369;DHT22;41247;49.736;8.752;2022-07-17T03:35:53;12.90;99.90
55369;DHT22;41247;49.736;8.752;2022-07-17T03:39:33;12.90;99.90
55369;DHT22;41247;49.736;8.752;2022-07-17T03:43:14;12.90;99.90
55369;DHT22;41247;49.736;8.752;2022-07-17T03:46:55;12.80;99.90
55369;DHT22;41247;49.736;8.752;2022-07-17T03:50:36;12.80;99.90
55369;DHT22;41247;49.736;8.752;2022-07-17T03:54:16;12.80;99.90
55369;DHT22;41247;49.736;8.752;2022-07-17T03:57:57;12.70;99.90
55369;DHT22;41247;49.736;8.752;2022-07-17T04:01:37;12.70;99.90
55369;DHT22;41247;49.736;8.752;2022-07-17T04:05:18;12.60;99.90
55369;DHT22;41247;49.736;8.752;2022-07-17T04:09:00;12.50;99.90
55369;DHT22;41247;49.736;8.752;2022-07-17T04:12:41;12.50;99.90
55369;DHT22;41247;49.736;8.752;2022-07-17T04:16:22;12.50;99.90
55369;DHT22;41247;49.736;8.752;2022-07-17T04:20:03;12.40;99.90
55369;DHT22;41247;49.736;8.752;2022-07-17T04:23:44;12.40;99.90
55369;DHT22;41247;49.736;8.752;2022-07-17T04:27:25;12.30;99.90
55369;DHT22;41247;49.736;8.752;2022-07-17T04:31:06;12.20;99.90
55369;DHT22;41247;49.736;8.752;2022-07-17T04:34:47;12.20;99.90
55369;DHT22;41247;49.736;8.752;2022-07-17T04:38:27;12.10;99.90
55369;DHT22;41247;49.736;8.752;2022-07-17T04:42:08;12.00;99.90
55369;DHT22;41247;49.736;8.752;2022-07-17T04:45:48;12.00;99.90
55369;DHT22;41247;49.736;8.752;2022-07-17T04:49:29;11.90;99.90
55369;DHT22;41247;49.736;8.752;2022-07-17T04:53:10;11.90;99.90
55369;DHT22;41247;49.736;8.752;2022-07-17T04:56:50;11.80;99.90
55369;DHT22;41247;49.736;8.752;2022-07-17T05:00:31;11.80;99.90
55369;DHT22;41247;49.736;8.752;2022-07-17T05:04:11;11.80;99.90
55369;DHT22;41247;49.736;8.752;2022-07-17T05:07:52;11.80;99.90
55369;DHT22;41247;49.736;8.752;2022-07-17T05:11:33;11.70;99.90
55369;DHT22;41247;49.736;8.752;2022-07-17T05:15:13;11.70;99.90
55369;DHT22;41247;49.736;8.752;2022-07-17T05:18:56;11.70;99.90
55369;DHT22;41247;49.736;8.752;2022-07-17T05:22:36;11.70;99.90
55369;DHT22;41247;49.736;8.752;2022-07-17T05:26:17;11.80;99.90
55369;DHT22;41247;49.736;8.752;2022-07-17T05:29:58;11.80;99.90
55369;DHT22;41247;49.736;8.752;2022-07-17T05:33:39;11.90;99.90
55369;DHT22;41247;49.736;8.752;2022-07-17T05:37:20;12.00;99.90
55369;DHT22;41247;49.736;8.752;2022-07-17T05:41:01;12.10;99.90
55369;DHT22;41247;49.736;8.752;2022-07-17T05:44:43;12.20;99.90
55369;DHT22;41247;49.736;8.752;2022-07-17T05:48:27;12.30;99.90
55369;DHT22;41247;49.736;8.752;2022-07-17T05:52:10;12.40;99.90
55369;DHT22;41247;49.736;8.752;2022-07-17T05:55:57;12.40;99.90
55369;DHT22;41247;49.736;8.752;2022-07-17T05:59:37;12.50;99.90
55369;DHT22;41247;49.736;8.752;2022-07-17T06:03:18;12.60;99.90
55369;DHT22;41247;49.736;8.752;2022-07-17T06:06:59;12.70;99.90
55369;DHT22;41247;49.736;8.752;2022-07-17T06:10:39;12.80;99.90
55369;DHT22;41247;49.736;8.752;2022-07-17T06:14:20;12.90;99.90
55369;DHT22;41247;49.736;8.752;2022-07-17T06:18:09;13.10;99.90
55369;DHT22;41247;49.736;8.752;2022-07-17T06:21:49;13.30;99.90
55369;DHT22;41247;49.736;8.752;2022-07-17T06:25:30;13.60;99.90
55369;DHT22;41247;49.736;8.752;2022-07-17T06:29:11;13.80;99.90
55369;DHT22;41247;49.736;8.752;2022-07-17T06:32:51;14.00;99.90
55369;DHT22;41247;49.736;8.752;2022-07-17T06:36:41;14.20;99.90
55369;DHT22;41247;49.736;8.752;2022-07-17T06:40:21;14.60;99.90
55369;DHT22;41247;49.736;8.752;2022-07-17T06:44:02;14.90;99.90
55369;DHT22;41247;49.736;8.752;2022-07-17T06:47:43;15.30;99.90
55369;DHT22;41247;49.736;8.752;2022-07-17T06:51:23;15.80;99.90
55369;DHT22;41247;49.736;8.752;2022-07-17T06:55:04;16.30;99.90
55369;DHT22;41247;49.736;8.752;2022-07-17T06:58:45;16.70;99.90
55369;DHT22;41247;49.736;8.752;2022-07-17T07:02:26;17.10;99.90
55369;DHT22;41247;49.736;8.752;2022-07-17T07:06:07;17.50;99.90
55369;DHT22;41247;49.736;8.752;2022-07-17T07:09:47;17.80;99.90
55369;DHT22;41247;49.736;8.752;2022-07-17T07:13:32;18.00;99.90
55369;DHT22;41247;49.736;8.752;2022-07-17T07:17:13;18.30;99.90
55369;DHT22;41247;49.736;8.752;2022-07-17T07:20:53;18.60;99.90
55369;DHT22;41247;49.736;8.752;2022-07-17T07:24:34;18.90;99.90
55369;DHT22;41247;49.736;8.752;2022-07-17T07:28:15;19.20;99.90
55369;DHT22;41247;49.736;8.752;2022-07-17T07:31:55;19.50;99.90
55369;DHT22;41247;49.736;8.752;2022-07-17T07:35:36;19.70;99.90
55369;DHT22;41247;49.736;8.752;2022-07-17T07:39:16;20.00;99.90
55369;DHT22;41247;49.736;8.752;2022-07-17T07:42:57;20.20;99.90
55369;DHT22;41247;49.736;8.752;2022-07-17T07:46:38;20.40;99.90
55369;DHT22;41247;49.736;8.752;2022-07-17T07:50:22;20.60;99.90
55369;DHT22;41247;49.736;8.752;2022-07-17T07:54:03;20.70;99.90
55369;DHT22;41247;49.736;8.752;2022-07-17T07:57:44;20.90;99.90
55369;DHT22;41247;49.736;8.752;2022-07-17T08:01:25;21.00;99.90
55369;DHT22;41247;49.736;8.752;2022-07-17T08:05:05;21.20;99.90
55369;DHT22;41247;49.736;8.752;2022-07-17T08:08:46;21.20;99.90
55369;DHT22;41247;49.736;8.752;2022-07-17T08:12:27;21.30;99.90
55369;DHT22;41247;49.736;8.752;2022-07-17T08:16:08;21.50;99.90
55369;DHT22;41247;49.736;8.752;2022-07-17T08:19:48;21.50;99.90
55369;DHT22;41247;49.736;8.752;2022-07-17T08:23:29;21.60;99.90
55369;DHT22;41247;49.736;8.752;2022-07-17T08:27:09;21.70;99.90
55369;DHT22;41247;49.736;8.752;2022-07-17T08:30:50;21.70;99.90
55369;DHT22;41247;49.736;8.752;2022-07-17T08:34:30;21.80;99.90
55369;DHT22;41247;49.736;8.752;2022-07-17T08:38:11;21.90;99.90
55369;DHT22;41247;49.736;8.752;2022-07-17T08:41:55;22.00;99.90
55369;DHT22;41247;49.736;8.752;2022-07-17T08:45:37;22.20;99.90
55369;DHT22;41247;49.736;8.752;2022-07-17T08:49:21;22.20;99.90
55369;DHT22;41247;49.736;8.752;2022-07-17T08:53:02;22.30;99.90
55369;DHT22;41247;49.736;8.752;2022-07-17T08:56:43;22.50;99.90
55369;DHT22;41247;49.736;8.752;2022-07-17T09:00:25;22.60;99.90
55369;DHT22;41247;49.736;8.752;2022-07-17T09:04:06;22.70;99.90
55369;DHT22;41247;49.736;8.752;2022-07-17T09:07:47;22.90;99.90
55369;DHT22;41247;49.736;8.752;2022-07-17T09:11:29;23.00;99.90
55369;DHT22;41247;49.736;8.752;2022-07-17T09:15:17;23.10;99.90
55369;DHT22;41247;49.736;8.752;2022-07-17T09:18:58;23.30;99.90
55369;DHT22;41247;49.736;8.752;2022-07-17T09:22:39;23.50;99.90
55369;DHT22;41247;49.736;8.752;2022-07-17T09:26:19;23.60;99.90
55369;DHT22;41247;49.736;8.752;2022-07-17T09:30:11;23.70;99.90
55369;DHT22;41247;49.736;8.752;2022-07-17T09:33:52;23.90;99.90
55369;DHT22;41247;49.736;8.752;2022-07-17T09:37:33;23.90;99.90
55369;DHT22;41247;49.736;8.752;2022-07-17T09:41:17;24.00;99.90
55369;DHT22;41247;49.736;8.752;2022-07-17T09:45:20;24.10;99.90
55369;DHT22;41247;49.736;8.752;2022-07-17T09:49:03;24.30;99.90
55369;DHT22;41247;49.736;8.752;2022-07-17T09:52:45;24.50;99.90
55369;DHT22;41247;49.736;8.752;2022-07-17T09:56:29;24.70;99.90
55369;DHT22;41247;49.736;8.752;2022-07-17T10:00:11;25.00;99.90
55369;DHT22;41247;49.736;8.752;2022-07-17T10:03:53;25.10;99.90
55369;DHT22;41247;49.736;8.752;2022-07-17T10:07:34;25.20;99.90
55369;DHT22;41247;49.736;8.752;2022-07-17T10:11:15;25.20;99.90
55369;DHT22;41247;49.736;8.752;2022-07-17T10:14:59;25.50;99.90
55369;DHT22;41247;49.736;8.752;2022-07-17T10:18:42;25.70;99.90
55369;DHT22;41247;49.736;8.752;2022-07-17T10:22:24;25.80;99.90
55369;DHT22;41247;49.736;8.752;2022-07-17T10:26:05;25.80;99.90
55369;DHT22;41247;49.736;8.752;2022-07-17T10:29:46;25.90;99.90
55369;DHT22;41247;49.736;8.752;2022-07-17T10:33:27;26.10;99.90
55369;DHT22;41247;49.736;8.752;2022-07-17T10:37:25;26.50;99.90
55369;DHT22;41247;49.736;8.752;2022-07-17T10:41:08;26.60;99.90
55369;DHT22;41247;49.736;8.752;2022-07-17T10:44:48;26.60;99.90
55369;DHT22;41247;49.736;8.752;2022-07-17T10:48:29;26.80;99.90
55369;DHT22;41247;49.736;8.752;2022-07-17T10:52:12;27.10;99.90
55369;DHT22;41247;49.736;8.752;2022-07-17T10:56:01;27.20;99.90
55369;DHT22;41247;49.736;8.752;2022-07-17T10:59:47;27.50;99.90
55369;DHT22;41247;49.736;8.752;2022-07-17T11:03:28;27.60;99.90
55369;DHT22;41247;49.736;8.752;2022-07-17T11:07:09;27.90;99.90
55369;DHT22;41247;49.736;8.752;2022-07-17T11:10:51;27.90;99.90
55369;DHT22;41247;49.736;8.752;2022-07-17T11:14:31;28.00;99.90
55369;DHT22;41247;49.736;8.752;2022-07-17T11:18:17;28.10;99.90
55369;DHT22;41247;49.736;8.752;2022-07-17T11:22:01;28.10;99.20
55369;DHT22;41247;49.736;8.752;2022-07-17T11:25:54;28.30;99.90
55369;DHT22;41247;49.736;8.752;2022-07-17T11:29:40;28.70;98.90
55369;DHT22;41247;49.736;8.752;2022-07-17T11:33:20;28.90;99.90
55369;DHT22;41247;49.736;8.752;2022-07-17T11:37:03;29.00;98.00
55369;DHT22;41247;49.736;8.752;2022-07-17T11:40:47;29.00;97.40
55369;DHT22;41247;49.736;8.752;2022-07-17T11:44:28;29.10;99.30
55369;DHT22;41247;49.736;8.752;2022-07-17T11:48:08;29.40;97.90
55369;DHT22;41247;49.736;8.752;2022-07-17T11:51:49;29.50;96.00
55369;DHT22;41247;49.736;8.752;2022-07-17T11:55:40;29.60;96.80
55369;DHT22;41247;49.736;8.752;2022-07-17T11:59:30;29.70;96.60
55369;DHT22;41247;49.736;8.752;2022-07-17T12:03:12;29.70;94.00
55369;DHT22;41247;49.736;8.752;2022-07-17T12:07:00;29.70;97.00
55369;DHT22;41247;49.736;8.752;2022-07-17T12:11:01;29.80;95.00
55369;DHT22;41247;49.736;8.752;2022-07-17T12:14:57;29.90;94.90
55369;DHT22;41247;49.736;8.752;2022-07-17T12:18:40;30.30;95.10
55369;DHT22;41247;49.736;8.752;2022-07-17T12:22:21;30.50;94.10
55369;DHT22;41247;49.736;8.752;2022-07-17T12:29:51;30.60;94.50
55369;DHT22;41247;49.736;8.752;2022-07-17T12:33:31;30.60;92.90
55369;DHT22;41247;49.736;8.752;2022-07-17T12:37:14;30.40;91.40
55369;DHT22;41247;49.736;8.752;2022-07-17T12:40:59;30.50;91.00
55369;DHT22;41247;49.736;8.752;2022-07-17T12:44:40;30.40;92.90
55369;DHT22;41247;49.736;8.752;2022-07-17T12:48:20;30.40;90.40
55369;DHT22;41247;49.736;8.752;2022-07-17T12:52:01;30.20;89.60
55369;DHT22;41247;49.736;8.752;2022-07-17T12:55:42;30.20;87.00
55369;DHT22;41247;49.736;8.752;2022-07-17T12:59:23;30.40;87.20
55369;DHT22;41247;49.736;8.752;2022-07-17T13:03:04;30.40;85.30
55369;DHT22;41247;49.736;8.752;2022-07-17T13:06:45;30.50;81.20
55369;DHT22;41247;49.736;8.752;2022-07-17T13:10:25;30.70;74.40
55369;DHT22;41247;49.736;8.752;2022-07-17T13:14:06;31.00;82.30
55369;DHT22;41247;49.736;8.752;2022-07-17T13:17:46;30.80;77.80
55369;DHT22;41247;49.736;8.752;2022-07-17T13:21:27;30.80;80.70
55369;DHT22;41247;49.736;8.752;2022-07-17T13:25:08;30.50;86.10
55369;DHT22;41247;49.736;8.752;2022-07-17T13:28:48;30.50;80.80
55369;DHT22;41247;49.736;8.752;2022-07-17T13:32:29;30.80;76.40
55369;DHT22;41247;49.736;8.752;2022-07-17T13:36:10;30.90;78.50
55369;DHT22;41247;49.736;8.752;2022-07-17T13:39:50;31.00;75.00
55369;DHT22;41247;49.736;8.752;2022-07-17T13:43:31;31.00;81.60
55369;DHT22;41247;49.736;8.752;2022-07-17T13:47:14;31.00;77.80
55369;DHT22;41247;49.736;8.752;2022-07-17T13:50:54;31.30;75.70
55369;DHT22;41247;49.736;8.752;2022-07-17T13:54:35;31.50;75.70
55369;DHT22;41247;49.736;8.752;2022-07-17T13:58:15;32.00;81.60
55369;DHT22;41247;49.736;8.752;2022-07-17T14:01:56;32.30;76.40
55369;DHT22;41247;49.736;8.752;2022-07-17T14:05:37;32.50;72.70
55369;DHT22;41247;49.736;8.752;2022-07-17T14:09:17;32.60;70.30
55369;DHT22;41247;49.736;8.752;2022-07-17T14:12:59;32.60;68.20
55369;DHT22;41247;49.736;8.752;2022-07-17T14:16:40;32.60;66.20
55369;DHT22;41247;49.736;8.752;2022-07-17T14:20:20;33.00;68.80
55369;DHT22;41247;49.736;8.752;2022-07-17T14:24:02;33.00;68.50
55369;DHT22;41247;49.736;8.752;2022-07-17T14:27:44;33.10;70.80
55369;DHT22;41247;49.736;8.752;2022-07-17T14:31:24;33.10;70.70
55369;DHT22;41247;49.736;8.752;2022-07-17T14:35:06;33.20;67.70
55369;DHT22;41247;49.736;8.752;2022-07-17T14:38:46;33.10;75.80
55369;DHT22;41247;49.736;8.752;2022-07-17T14:42:27;33.30;68.70
55369;DHT22;41247;49.736;8.752;2022-07-17T14:46:14;33.50;66.20
55369;DHT22;41247;49.736;8.752;2022-07-17T14:49:54;33.50;71.10
55369;DHT22;41247;49.736;8.752;2022-07-17T14:53:35;33.50;72.30
55369;DHT22;41247;49.736;8.752;2022-07-17T14:57:16;33.50;75.30
55369;DHT22;41247;49.736;8.752;2022-07-17T15:00:56;33.60;67.40
55369;DHT22;41247;49.736;8.752;2022-07-17T15:04:37;33.50;68.20
55369;DHT22;41247;49.736;8.752;2022-07-17T15:08:18;33.30;69.00
55369;DHT22;41247;49.736;8.752;2022-07-17T15:11:58;33.50;72.10
55369;DHT22;41247;49.736;8.752;2022-07-17T15:15:39;33.70;70.00
55369;DHT22;41247;49.736;8.752;2022-07-17T15:19:20;33.80;68.50
55369;DHT22;41247;49.736;8.752;2022-07-17T15:23:01;33.60;68.60
55369;DHT22;41247;49.736;8.752;2022-07-17T15:26:41;33.50;68.10
55369;DHT22;41247;49.736;8.752;2022-07-17T15:30:22;33.30;68.10
55369;DHT22;41247;49.736;8.752;2022-07-17T15:34:02;33.40;65.60
55369;DHT22;41247;49.736;8.752;2022-07-17T15:37:43;33.40;66.70
55369;DHT22;41247;49.736;8.752;2022-07-17T15:41:24;33.70;67.10
55369;DHT22;41247;49.736;8.752;2022-07-17T15:45:05;33.70;64.20
55369;DHT22;41247;49.736;8.752;2022-07-17T15:48:46;33.50;64.80
55369;DHT22;41247;49.736;8.752;2022-07-17T15:52:27;33.00;62.20
55369;DHT22;41247;49.736;8.752;2022-07-17T15:56:07;32.70;64.60
55369;DHT22;41247;49.736;8.752;2022-07-17T15:59:48;32.30;64.50
55369;DHT22;41247;49.736;8.752;2022-07-17T16:03:29;31.80;60.10
55369;DHT22;41247;49.736;8.752;2022-07-17T16:07:10;31.20;66.60
55369;DHT22;41247;49.736;8.752;2022-07-17T16:10:50;31.10;63.40
55369;DHT22;41247;49.736;8.752;2022-07-17T16:14:31;31.70;64.90
55369;DHT22;41247;49.736;8.752;2022-07-17T16:18:12;33.70;59.20
55369;DHT22;41247;49.736;8.752;2022-07-17T16:21:52;34.90;60.90
55369;DHT22;41247;49.736;8.752;2022-07-17T16:25:33;35.20;61.00
55369;DHT22;41247;49.736;8.752;2022-07-17T16:29:14;35.40;59.10
55369;DHT22;41247;49.736;8.752;2022-07-17T16:32:54;34.00;60.30
55369;DHT22;41247;49.736;8.752;2022-07-17T16:36:35;32.30;60.70
55369;DHT22;41247;49.736;8.752;2022-07-17T16:40:15;31.10;67.80
55369;DHT22;41247;49.736;8.752;2022-07-17T16:43:56;30.40;64.20
55369;DHT22;41247;49.736;8.752;2022-07-17T16:47:37;30.00;65.70
55369;DHT22;41247;49.736;8.752;2022-07-17T16:51:17;29.50;63.70
55369;DHT22;41247;49.736;8.752;2022-07-17T16:54:58;29.00;66.50
55369;DHT22;41247;49.736;8.752;2022-07-17T16:58:39;28.70;64.80
55369;DHT22;41247;49.736;8.752;2022-07-17T17:02:19;28.50;69.70
55369;DHT22;41247;49.736;8.752;2022-07-17T17:06:00;28.30;68.60
55369;DHT22;41247;49.736;8.752;2022-07-17T17:09:40;28.20;65.80
55369;DHT22;41247;49.736;8.752;2022-07-17T17:13:21;28.30;64.30
55369;DHT22;41247;49.736;8.752;2022-07-17T17:17:02;27.90;70.80
55369;DHT22;41247;49.736;8.752;2022-07-17T17:20:42;27.60;67.40
55369;DHT22;41247;49.736;8.752;2022-07-17T17:24:23;27.40;69.90
55369;DHT22;41247;49.736;8.752;2022-07-17T17:28:03;27.30;70.90
55369;DHT22;41247;49.736;8.752;2022-07-17T17:31:44;27.20;68.00
55369;DHT22;41247;49.736;8.752;2022-07-17T17:35:26;27.00;69.20
55369;DHT22;41247;49.736;8.752;2022-07-17T17:39:07;26.70;75.50
55369;DHT22;41247;49.736;8.752;2022-07-17T17:42:47;26.50;74.10
55369;DHT22;41247;49.736;8.752;2022-07-17T17:46:28;26.20;72.50
55369;DHT22;41247;49.736;8.752;2022-07-17T17:50:09;26.00;72.50
55369;DHT22;41247;49.736;8.752;2022-07-17T17:53:50;25.70;72.40
55369;DHT22;41247;49.736;8.752;2022-07-17T17:57:31;25.50;76.90
55369;DHT22;41247;49.736;8.752;2022-07-17T18:01:11;25.20;76.80
55369;DHT22;41247;49.736;8.752;2022-07-17T18:04:52;24.90;79.80
55369;DHT22;41247;49.736;8.752;2022-07-17T18:08:33;24.60;81.20
55369;DHT22;41247;49.736;8.752;2022-07-17T18:12:13;24.30;87.10
55369;DHT22;41247;49.736;8.752;2022-07-17T18:15:54;24.00;85.90
55369;DHT22;41247;49.736;8.752;2022-07-17T18:19:35;23.70;88.30
55369;DHT22;41247;49.736;8.752;2022-07-17T18:23:15;23.50;90.80
55369;DHT22;41247;49.736;8.752;2022-07-17T18:26:56;23.20;90.40
55369;DHT22;41247;49.736;8.752;2022-07-17T18:30:38;23.00;85.20
55369;DHT22;41247;49.736;8.752;2022-07-17T18:34:18;22.90;90.60
55369;DHT22;41247;49.736;8.752;2022-07-17T18:38:00;22.70;92.30
55369;DHT22;41247;49.736;8.752;2022-07-17T18:41:41;22.40;92.40
55369;DHT22;41247;49.736;8.752;2022-07-17T18:45:22;22.10;92.30
55369;DHT22;41247;49.736;8.752;2022-07-17T18:49:02;21.90;93.40
55369;DHT22;41247;49.736;8.752;2022-07-17T18:52:44;21.70;93.80
55369;DHT22;41247;49.736;8.752;2022-07-17T18:56:24;21.50;92.80
55369;DHT22;41247;49.736;8.752;2022-07-17T19:00:05;21.30;94.20
55369;DHT22;41247;49.736;8.752;2022-07-17T19:03:46;21.00;94.30
55369;DHT22;41247;49.736;8.752;2022-07-17T19:07:27;20.80;94.10
55369;DHT22;41247;49.736;8.752;2022-07-17T19:11:07;20.60;94.30
55369;DHT22;41247;49.736;8.752;2022-07-17T19:14:48;20.40;94.10
55369;DHT22;41247;49.736;8.752;2022-07-17T19:18:29;20.20;93.40
55369;DHT22;41247;49.736;8.752;2022-07-17T19:22:10;20.10;93.70
55369;DHT22;41247;49.736;8.752;2022-07-17T19:25:51;19.90;92.10
55369;DHT22;41247;49.736;8.752;2022-07-17T19:29:32;19.70;93.30
55369;DHT22;41247;49.736;8.752;2022-07-17T19:33:13;19.60;93.00
55369;DHT22;41247;49.736;8.752;2022-07-17T19:36:54;19.50;95.50
55369;DHT22;41247;49.736;8.752;2022-07-17T19:40:35;19.30;95.40
55369;DHT22;41247;49.736;8.752;2022-07-17T19:44:16;19.10;94.50
55369;DHT22;41247;49.736;8.752;2022-07-17T19:47:56;19.00;94.90
55369;DHT22;41247;49.736;8.752;2022-07-17T19:51:37;18.90;94.30
55369;DHT22;41247;49.736;8.752;2022-07-17T19:55:18;18.80;95.10
55369;DHT22;41247;49.736;8.752;2022-07-17T19:58:58;18.70;95.20
55369;DHT22;41247;49.736;8.752;2022-07-17T20:02:39;18.60;95.90
55369;DHT22;41247;49.736;8.752;2022-07-17T20:06:20;18.50;97.60
55369;DHT22;41247;49.736;8.752;2022-07-17T20:10:00;18.40;97.00
55369;DHT22;41247;49.736;8.752;2022-07-17T20:13:41;18.30;97.90
55369;DHT22;41247;49.736;8.752;2022-07-17T20:17:24;18.20;98.60
55369;DHT22;41247;49.736;8.752;2022-07-17T20:21:05;18.10;97.40
55369;DHT22;41247;49.736;8.752;2022-07-17T20:24:45;18.10;97.00
55369;DHT22;41247;49.736;8.752;2022-07-17T20:28:26;18.00;97.00
55369;DHT22;41247;49.736;8.752;2022-07-17T20:32:07;18.00;97.90
55369;DHT22;41247;49.736;8.752;2022-07-17T20:35:47;17.90;98.30
55369;DHT22;41247;49.736;8.752;2022-07-17T20:39:28;17.90;98.20
55369;DHT22;41247;49.736;8.752;2022-07-17T20:43:09;17.80;99.00
55369;DHT22;41247;49.736;8.752;2022-07-17T20:46:49;17.80;98.90
55369;DHT22;41247;49.736;8.752;2022-07-17T20:50:30;17.70;98.90
55369;DHT22;41247;49.736;8.752;2022-07-17T20:54:11;17.70;99.90
55369;DHT22;41247;49.736;8.752;2022-07-17T20:57:52;17.60;99.90
55369;DHT22;41247;49.736;8.752;2022-07-17T21:01:32;17.60;99.90
55369;DHT22;41247;49.736;8.752;2022-07-17T21:05:13;17.50;99.90
55369;DHT22;41247;49.736;8.752;2022-07-17T21:08:54;17.40;99.90
55369;DHT22;41247;49.736;8.752;2022-07-17T21:12:34;17.40;99.90
55369;DHT22;41247;49.736;8.752;2022-07-17T21:16:15;17.40;99.90
55369;DHT22;41247;49.736;8.752;2022-07-17T21:19:55;17.30;99.90
55369;DHT22;41247;49.736;8.752;2022-07-17T21:23:36;17.30;99.90
55369;DHT22;41247;49.736;8.752;2022-07-17T21:27:17;17.30;99.90
55369;DHT22;41247;49.736;8.752;2022-07-17T21:30:57;17.20;99.90
55369;DHT22;41247;49.736;8.752;2022-07-17T21:34:38;17.10;99.90
55369;DHT22;41247;49.736;8.752;2022-07-17T21:38:18;17.10;99.90
55369;DHT22;41247;49.736;8.752;2022-07-17T21:41:59;17.10;99.90
55369;DHT22;41247;49.736;8.752;2022-07-17T21:45:40;17.00;99.90
55369;DHT22;41247;49.736;8.752;2022-07-17T21:49:22;17.00;99.90
55369;DHT22;41247;49.736;8.752;2022-07-17T21:53:02;16.90;99.90
55369;DHT22;41247;49.736;8.752;2022-07-17T21:56:43;16.90;99.90
55369;DHT22;41247;49.736;8.752;2022-07-17T22:00:23;16.80;99.90
55369;DHT22;41247;49.736;8.752;2022-07-17T22:04:04;16.70;99.90
55369;DHT22;41247;49.736;8.752;2022-07-17T22:07:45;16.60;99.90
55369;DHT22;41247;49.736;8.752;2022-07-17T22:11:26;16.50;99.90
55369;DHT22;41247;49.736;8.752;2022-07-17T22:15:09;16.50;99.90
55369;DHT22;41247;49.736;8.752;2022-07-17T22:18:51;16.40;99.90
55369;DHT22;41247;49.736;8.752;2022-07-17T22:22:31;16.30;99.90
55369;DHT22;41247;49.736;8.752;2022-07-17T22:26:12;16.30;99.90
55369;DHT22;41247;49.736;8.752;2022-07-17T22:29:53;16.20;99.90
55369;DHT22;41247;49.736;8.752;2022-07-17T22:33:34;16.10;99.90
55369;DHT22;41247;49.736;8.752;2022-07-17T22:37:14;16.10;99.90
55369;DHT22;41247;49.736;8.752;2022-07-17T22:40:55;16.00;99.90
55369;DHT22;41247;49.736;8.752;2022-07-17T22:44:36;16.10;99.90
55369;DHT22;41247;49.736;8.752;2022-07-17T22:48:16;16.10;99.90
55369;DHT22;41247;49.736;8.752;2022-07-17T22:52:02;16.10;99.90
55369;DHT22;41247;49.736;8.752;2022-07-17T22:55:43;16.10;99.90
55369;DHT22;41247;49.736;8.752;2022-07-17T22:59:24;16.10;99.90
55369;DHT22;41247;49.736;8.752;2022-07-17T23:03:05;16.10;99.90
55369;DHT22;41247;49.736;8.752;2022-07-17T23:06:46;16.10;99.90
55369;DHT22;41247;49.736;8.752;2022-07-17T23:10:26;16.10;99.90
55369;DHT22;41247;49.736;8.752;2022-07-17T23:14:07;16.20;99.90
55369;DHT22;41247;49.736;8.752;2022-07-17T23:17:48;16.20;99.90
55369;DHT22;41247;49.736;8.752;2022-07-17T23:21:28;16.30;99.90